Time;durP1;ratioP1;P1;durP2;ratioP2;P2;SDS_P1;SDS_P2;PMS_P1;PMS_P2;Temp;Humidity;BMP_temperature;BMP_pressure;BME280_temperature;BME280_humidity;BME280_pressure;Samples;Min_cycle;Max_cycle;Signal;HPM_P1;HPM_P2
2023/08/09 00:02:22;;;;;;;7.63;4.45;;;;;;;21.96;53.98;101355.75;5040783;28;20460;-34
2023/08/09 00:04:49;;;;;;;6.35;4.53;;;;;;;21.96;54.13;101350.34;5041455;28;20506;-34
2023/08/09 00:07:15;;;;;;;5.60;4.03;;;;;;;21.96;54.26;101352.22;5042355;28;20049;-34
2023/08/09 00:09:42;;;;;;;7.10;4.15;;;;;;;21.96;54.16;101354.91;5043918;28;20076;-34
2023/08/09 00:12:08;;;;;;;6.07;4.13;;;;;;;21.95;53.77;101354.06;5041861;28;20382;-34
2023/08/09 00:14:35;;;;;;;6.45;4.30;;;;;;;21.94;54.07;101357.75;5038036;28;20388;-34
2023/08/09 00:17:02;;;;;;;5.35;3.72;;;;;;;21.93;54.13;101345.28;5043626;28;20654;-34
2023/08/09 00:19:28;;;;;;;6.95;4.30;;;;;;;21.93;54.17;101348.81;5042742;28;20045;-33
2023/08/09 00:21:55;;;;;;;5.85;4.05;;;;;;;21.92;54.12;101347.16;5042613;28;20502;-34
2023/08/09 00:24:22;;;;;;;6.45;4.28;;;;;;;21.91;54.21;101347.31;5041924;28;20068;-34
2023/08/09 00:26:48;;;;;;;5.82;3.83;;;;;;;21.91;54.53;101350.03;5042737;28;20177;-34
2023/08/09 00:29:15;;;;;;;6.65;4.07;;;;;;;21.91;54.44;101347.31;5042451;28;20049;-33
2023/08/09 00:31:42;;;;;;;5.53;4.07;;;;;;;21.90;54.39;101348.31;5045416;28;20421;-34
2023/08/09 00:34:10;;;;;;;5.25;3.83;;;;;;;21.90;54.10;101356.41;5042409;28;20124;-34
2023/08/09 00:36:37;;;;;;;4.47;3.35;;;;;;;21.89;54.50;101362.81;5043818;28;20132;-34
2023/08/09 00:39:05;;;;;;;5.85;3.75;;;;;;;21.88;54.27;101358.44;5037271;28;20608;-33
2023/08/09 00:41:32;;;;;;;5.82;3.90;;;;;;;21.88;54.41;101358.44;5043497;28;20037;-34
2023/08/09 00:43:59;;;;;;;5.18;3.53;;;;;;;21.86;54.31;101360.44;5041839;28;20107;-33
2023/08/09 00:46:25;;;;;;;5.65;3.70;;;;;;;21.85;54.63;101359.63;5049272;28;20064;-34
2023/08/09 00:48:52;;;;;;;5.00;3.58;;;;;;;21.86;54.50;101357.75;5036145;28;20127;-33
2023/08/09 00:51:19;;;;;;;5.07;3.25;;;;;;;21.85;54.44;101361.47;5039370;28;20099;-33
2023/08/09 00:53:48;;;;;;;5.05;3.35;;;;;;;21.84;54.46;101359.78;5040374;28;20044;-34
2023/08/09 00:56:15;;;;;;;4.72;3.13;;;;;;;21.84;54.93;101365.19;5041351;28;20319;-33
2023/08/09 00:58:41;;;;;;;4.65;3.40;;;;;;;21.83;54.65;101355.38;5044281;28;20171;-33
2023/08/09 01:01:08;;;;;;;5.93;3.60;;;;;;;21.82;54.83;101373.44;5044274;28;20091;-33
2023/08/09 01:03:35;;;;;;;5.57;3.70;;;;;;;21.81;54.56;101365.50;5039071;28;20045;-33
2023/08/09 01:06:21;;;;;;;5.85;3.75;;;;;;;21.80;54.83;101369.22;5046996;28;20389;-33
2023/08/09 01:09:16;;;;;;;4.88;3.15;;;;;;;21.82;54.94;101367.19;5042335;28;20057;-34
2023/08/09 01:11:54;;;;;;;4.45;3.05;;;;;;;21.80;54.89;101369.22;5037321;28;20391;-34
2023/08/09 01:14:22;;;;;;;4.38;3.13;;;;;;;21.81;54.85;101373.59;5039419;28;20064;-34
2023/08/09 01:16:51;;;;;;;3.92;2.95;;;;;;;21.79;54.74;101364.81;5040810;28;20052;-33
2023/08/09 01:19:36;;;;;;;4.68;3.10;;;;;;;21.78;54.84;101366.69;5041618;28;20061;-33
2023/08/09 01:22:26;;;;;;;4.43;3.33;;;;;;;21.77;54.91;101373.09;5039806;28;20052;-33
2023/08/09 01:24:53;;;;;;;4.88;3.10;;;;;;;21.77;54.85;101372.25;5044921;28;20145;-34
2023/08/09 01:27:20;;;;;;;4.50;3.05;;;;;;;21.76;54.53;101375.97;5038375;28;20424;-34
2023/08/09 01:29:47;;;;;;;3.50;3.00;;;;;;;21.76;55.01;101374.09;5040070;28;20080;-34
2023/08/09 01:32:13;;;;;;;3.63;2.60;;;;;;;21.75;55.00;101372.44;5037513;28;20053;-33
2023/08/09 01:34:40;;;;;;;6.18;2.97;;;;;;;21.75;54.86;101369.72;5040328;28;20049;-34
2023/08/09 01:37:15;;;;;;;4.43;3.03;;;;;;;21.73;55.01;101385.22;5036979;28;20402;-33
2023/08/09 01:39:43;;;;;;;4.18;3.10;;;;;;;21.73;54.97;101381.69;5041580;28;20119;-33
2023/08/09 01:42:12;;;;;;;3.85;2.70;;;;;;;21.72;54.88;101383.53;5036332;28;20098;-34
2023/08/09 01:44:39;;;;;;;4.65;3.28;;;;;;;21.72;55.15;101385.41;5036570;28;20057;-34
2023/08/09 01:47:07;;;;;;;4.47;2.88;;;;;;;21.72;54.95;101388.09;5044257;28;20081;-34
2023/08/09 01:49:34;;;;;;;3.88;2.67;;;;;;;21.71;55.16;101381.88;5039119;28;20091;-33
2023/08/09 01:52:00;;;;;;;4.28;2.58;;;;;;;21.69;55.36;101379.31;5038811;28;20068;-33
2023/08/09 01:54:27;;;;;;;4.05;2.83;;;;;;;21.69;55.19;101386.56;5041006;28;20076;-34
2023/08/09 01:56:54;;;;;;;5.05;2.60;;;;;;;21.69;55.43;101392.81;5040023;28;20389;-34
2023/08/09 01:59:22;;;;;;;3.83;2.55;;;;;;;21.69;55.10;101397.34;5039065;28;20325;-33
2023/08/09 02:01:48;;;;;;;4.20;2.75;;;;;;;21.68;55.27;101393.81;5041437;28;20473;-33
2023/08/09 02:04:15;;;;;;;4.30;2.70;;;;;;;21.67;55.22;101386.75;5035974;28;20059;-33
2023/08/09 02:06:42;;;;;;;3.25;2.67;;;;;;;21.68;55.48;101401.91;5036424;28;20041;-34
2023/08/09 02:09:08;;;;;;;5.63;2.47;;;;;;;21.67;55.33;101399.38;5043230;28;20132;-34
2023/08/09 02:11:35;;;;;;;4.20;2.78;;;;;;;21.66;55.45;101401.22;5041924;28;20045;-33
2023/08/09 02:14:03;;;;;;;3.70;2.42;;;;;;;21.65;55.22;101399.53;5044407;28;20041;-34
2023/08/09 02:16:30;;;;;;;3.28;2.42;;;;;;;21.65;55.52;101404.94;5043625;28;20071;-34
2023/08/09 02:18:56;;;;;;;2.95;2.35;;;;;;;21.65;55.32;101409.47;5037235;28;20048;-34
2023/08/09 02:21:23;;;;;;;4.45;2.72;;;;;;;21.64;55.41;101415.91;5035648;28;20428;-34
2023/08/09 02:23:49;;;;;;;3.55;2.53;;;;;;;21.64;55.24;101424.00;5042078;28;20052;-33
2023/08/09 02:26:18;;;;;;;4.07;2.53;;;;;;;21.63;55.50;101420.44;5038941;28;20065;-33
2023/08/09 02:28:45;;;;;;;3.10;2.40;;;;;;;21.63;55.33;101416.91;5043035;28;20119;-34
2023/08/09 02:31:12;;;;;;;3.78;2.50;;;;;;;21.62;55.00;101418.72;5045262;28;20081;-33
2023/08/09 02:33:39;;;;;;;3.38;2.55;;;;;;;21.62;55.48;101417.91;5041636;28;20049;-34
2023/08/09 02:36:05;;;;;;;3.53;2.33;;;;;;;21.61;55.22;101432.41;5040174;28;20060;-34
2023/08/09 02:38:32;;;;;;;2.90;2.00;;;;;;;21.61;55.25;101430.53;5046877;28;20441;-34
2023/08/09 02:41:00;;;;;;;2.90;2.00;;;;;;;21.61;55.10;101432.41;5043719;28;20040;-34
2023/08/09 02:43:26;;;;;;;2.88;2.20;;;;;;;21.60;55.51;101442.34;5043899;28;20211;-34
2023/08/09 02:45:54;;;;;;;3.33;2.33;;;;;;;21.58;55.22;101438.94;5043480;28;20045;-33
2023/08/09 02:48:21;;;;;;;2.40;1.95;;;;;;;21.59;55.30;101432.56;5040818;28;20349;-33
2023/08/09 02:50:47;;;;;;;2.97;2.15;;;;;;;21.59;55.13;101437.13;5045048;28;20053;-33
2023/08/09 02:53:15;;;;;;;2.58;2.10;;;;;;;21.58;55.35;101440.81;5039677;28;20132;-34
2023/08/09 02:55:42;;;;;;;4.00;2.22;;;;;;;21.57;55.43;101431.03;5042161;28;20128;-33
2023/08/09 02:58:09;;;;;;;2.28;1.90;;;;;;;21.56;55.46;101437.44;5040126;28;20057;-34
2023/08/09 03:00:36;;;;;;;3.00;2.03;;;;;;;;;;5039060;28;20049;-34
2023/08/09 03:03:05;;;;;;;3.22;2.20;;;;;;;21.54;55.70;101432.19;5041145;28;20058;-33
2023/08/09 03:05:34;;;;;;;2.25;1.80;;;;;;;21.53;55.44;101435.91;5041322;28;20344;-33
2023/08/09 03:08:01;;;;;;;2.50;1.70;;;;;;;21.53;55.53;101438.59;5047444;28;20084;-33
2023/08/09 03:10:29;;;;;;;3.10;2.22;;;;;;;21.52;55.52;101436.09;5048213;28;20081;-33
2023/08/09 03:12:55;;;;;;;3.05;1.88;;;;;;;21.51;55.78;101443.34;5040514;28;20053;-33
2023/08/09 03:15:23;;;;;;;1.92;1.70;;;;;;;21.51;55.66;101451.44;5041059;28;20084;-34
2023/08/09 03:17:49;;;;;;;2.00;1.60;;;;;;;21.51;55.45;101453.25;5041965;28;20103;-34
2023/08/09 03:20:17;;;;;;;3.70;1.92;;;;;;;21.50;55.67;101455.09;5052301;28;20383;-34
2023/08/09 03:22:48;;;;;;;2.88;2.00;;;;;;;21.49;55.79;101448.03;5045888;28;20072;-34
2023/08/09 03:25:15;;;;;;;2.92;1.98;;;;;;;21.49;55.56;101441.78;5048937;28;20048;-34
2023/08/09 03:27:42;;;;;;;1.98;1.60;;;;;;;21.49;55.85;101444.50;5052029;28;20049;-33
2023/08/09 03:30:09;;;;;;;2.38;1.67;;;;;;;21.48;55.69;101445.50;5050579;28;20094;-34
2023/08/09 03:32:36;;;;;;;1.95;1.70;;;;;;;21.48;55.50;101450.91;5043310;28;20045;-33
2023/08/09 03:35:05;;;;;;;1.80;1.40;;;;;;;21.47;55.79;101452.75;5041999;28;20049;-33
2023/08/09 03:37:31;;;;;;;3.05;1.88;;;;;;;21.46;55.77;101452.91;5045150;28;20136;-33
2023/08/09 03:39:58;;;;;;;2.10;1.75;;;;;;;21.46;55.59;101456.44;5044355;28;20539;-33
2023/08/09 03:42:25;;;;;;;1.85;1.27;;;;;;;21.45;55.81;101460.16;5046076;28;20041;-34
2023/08/09 03:44:51;;;;;;;1.70;1.40;;;;;;;21.44;55.75;101467.41;5044610;28;20061;-33
2023/08/09 03:47:18;;;;;;;3.22;1.40;;;;;;;21.44;55.57;101466.56;5046007;28;20705;-33
2023/08/09 03:49:45;;;;;;;2.92;1.58;;;;;;;21.44;55.94;101474.66;5041162;28;20049;-33
2023/08/09 03:52:11;;;;;;;2.00;1.42;;;;;;;21.43;55.70;101468.41;5042298;28;20084;-33
2023/08/09 03:54:38;;;;;;;2.70;1.60;;;;;;;21.43;56.03;101479.19;5047009;28;20317;-33
2023/08/09 03:57:06;;;;;;;1.52;1.08;;;;;;;21.43;55.87;101491.84;5040992;28;20433;-34
2023/08/09 03:59:33;;;;;;;1.45;1.00;;;;;;;21.44;56.08;101488.13;5044717;28;20051;-34
2023/08/09 04:02:00;;;;;;;2.72;1.40;;;;;;;21.43;56.04;101491.84;5044691;28;20230;-33
2023/08/09 04:04:26;;;;;;;1.92;1.40;;;;;;;21.42;55.92;101490.13;5040834;28;20131;-34
2023/08/09 04:06:53;;;;;;;7.80;1.80;;;;;;;21.42;56.32;101490.13;5040808;28;20142;-34
2023/08/09 04:09:19;;;;;;;6.18;2.72;;;;;;;21.41;56.40;101489.28;5040961;28;20046;-33
2023/08/09 04:11:46;;;;;;;6.40;2.55;;;;;;;21.41;56.39;101493.84;5048961;28;20049;-33
2023/08/09 04:14:13;;;;;;;13.75;3.08;;;;;;;21.41;56.25;101493.84;5043597;28;20080;-34
2023/08/09 04:16:39;;;;;;;14.85;4.03;;;;;;;21.41;56.12;101501.94;5041619;28;20155;-33
2023/08/09 04:19:06;;;;;;;10.15;3.58;;;;;;;21.40;56.35;101497.56;5043152;28;20119;-34
2023/08/09 04:21:33;;;;;;;27.17;7.75;;;;;;;21.39;56.19;101491.31;5043982;28;20499;-34
2023/08/09 04:24:00;;;;;;;24.05;5.47;;;;;;;21.40;56.18;101503.78;5042282;28;20233;-33
2023/08/09 04:26:27;;;;;;;22.58;6.40;;;;;;;21.39;56.26;101502.09;5037983;28;20071;-34
2023/08/09 04:28:54;;;;;;;21.80;6.40;;;;;;;21.39;56.23;101504.81;5038884;28;20105;-33
2023/08/09 04:31:20;;;;;;;25.45;6.43;;;;;;;21.40;56.38;101508.34;5046384;28;20045;-33
2023/08/09 04:33:49;;;;;;;24.05;6.25;;;;;;;21.40;56.36;101511.88;5045559;28;20053;-33
2023/08/09 04:36:16;;;;;;;19.70;6.32;;;;;;;21.39;56.49;101514.75;5042868;28;20049;-34
2023/08/09 04:38:42;;;;;;;25.15;6.88;;;;;;;21.39;56.46;101510.19;5043402;28;20106;-33
2023/08/09 04:41:09;;;;;;;16.63;5.82;;;;;;;21.38;55.91;101523.81;5045843;28;20135;-34
2023/08/09 04:43:40;;;;;;;19.88;6.82;;;;;;;21.38;56.04;101515.72;5044491;28;20529;-33
2023/08/09 04:46:06;;;;;;;21.58;6.47;;;;;;;21.36;56.11;101521.28;5044827;28;20131;-34
2023/08/09 04:48:33;;;;;;;21.23;6.38;;;;;;;21.37;55.75;101516.75;5042501;28;20045;-33
2023/08/09 04:50:59;;;;;;;14.90;5.50;;;;;;;21.36;55.83;101525.84;5041729;28;20389;-33
2023/08/09 04:53:26;;;;;;;26.10;5.82;;;;;;;21.36;55.88;101528.53;5039065;28;20134;-34
2023/08/09 04:55:53;;;;;;;22.75;6.03;;;;;;;21.35;55.84;101535.78;5039624;28;20184;-34
2023/08/09 04:58:20;;;;;;;15.68;5.38;;;;;;;21.36;56.02;101526.69;5040053;28;20049;-33
2023/08/09 05:00:46;;;;;;;16.60;5.45;;;;;;;21.36;55.93;101523.16;5039919;28;20045;-34
2023/08/09 05:03:13;;;;;;;13.13;6.10;;;;;;;21.36;55.73;101534.78;5044909;28;20045;-34
2023/08/09 05:05:39;;;;;;;9.43;5.55;;;;;;;21.36;55.44;101528.53;5041920;28;20137;-34
2023/08/09 05:08:06;;;;;;;8.48;5.07;;;;;;;21.36;55.20;101533.94;5046977;28;20135;-34
2023/08/09 05:10:35;;;;;;;13.82;5.05;;;;;;;21.35;54.99;101529.56;5039214;28;20099;-33
2023/08/09 05:13:01;;;;;;;7.68;4.97;;;;;;;21.34;55.46;101528.69;5040810;28;20112;-33
2023/08/09 05:15:30;;;;;;;6.95;4.32;;;;;;;21.35;55.20;101537.63;5042278;28;20144;-33
2023/08/09 05:17:57;;;;;;;7.15;4.32;;;;;;;21.35;54.82;101543.88;5045446;28;20049;-34
2023/08/09 05:20:23;;;;;;;6.72;5.00;;;;;;;21.35;55.35;101537.63;5039155;28;20056;-34
2023/08/09 05:22:50;;;;;;;8.95;4.40;;;;;;;21.36;55.11;101544.72;5043872;28;20065;-34
2023/08/09 05:25:18;;;;;;;7.00;4.00;;;;;;;21.37;54.73;101538.31;5043558;28;20045;-34
2023/08/09 05:27:48;;;;;;;4.55;3.97;;;;;;;21.37;54.82;101551.78;5042317;28;20072;-33
2023/08/09 05:30:15;;;;;;;5.47;4.25;;;;;;;21.35;54.91;101546.56;5042581;28;20049;-34
2023/08/09 05:32:42;;;;;;;6.53;4.50;;;;;;;21.36;54.72;101550.09;5043632;28;20155;-33
2023/08/09 05:35:08;;;;;;;5.75;4.03;;;;;;;21.37;54.80;101558.03;5042351;28;20140;-34
2023/08/09 05:37:36;;;;;;;8.60;4.53;;;;;;;21.36;54.95;101548.25;5037327;28;20041;-33
2023/08/09 05:40:05;;;;;;;5.63;4.63;;;;;;;21.37;54.73;101551.78;5043072;28;20468;-34
2023/08/09 05:42:32;;;;;;;5.50;4.72;;;;;;;21.36;54.71;101558.19;5039283;28;20038;-33
2023/08/09 05:44:59;;;;;;;7.20;4.88;;;;;;;21.37;54.81;101558.03;5045501;28;20139;-33
2023/08/09 05:47:25;;;;;;;6.45;4.47;;;;;;;21.38;54.73;101554.31;5038720;28;20052;-33
2023/08/09 05:49:52;;;;;;;5.18;3.83;;;;;;;21.40;54.46;101562.28;5041083;28;20049;-33
2023/08/09 05:52:19;;;;;;;5.50;3.72;;;;;;;21.40;54.75;101560.41;5037494;28;20053;-34
2023/08/09 05:54:46;;;;;;;6.25;4.15;;;;;;;21.40;54.72;101556.88;5043497;28;20045;-34
2023/08/09 05:57:13;;;;;;;4.90;4.07;;;;;;;21.42;54.67;101565.66;5043596;28;20329;-34
2023/08/09 05:59:40;;;;;;;6.28;4.63;;;;;;;21.42;54.79;101569.19;5041991;28;20146;-34
2023/08/09 06:02:06;;;;;;;5.85;4.18;;;;;;;21.43;54.99;101573.59;5040789;28;20040;-34
2023/08/09 06:04:34;;;;;;;8.30;5.22;;;;;;;21.42;54.86;101566.47;5044519;28;20045;-33
2023/08/09 06:07:01;;;;;;;7.35;5.13;;;;;;;21.42;54.99;101576.44;5042664;28;20139;-33
2023/08/09 06:09:28;;;;;;;9.98;5.28;;;;;;;21.43;55.31;101580.84;5038430;28;20045;-33
2023/08/09 06:12:12;;;;;;;8.38;5.22;;;;;;;21.44;55.00;101579.84;5040696;28;20091;-34
2023/08/09 06:14:39;;;;;;;8.93;5.40;;;;;;;21.42;55.34;101571.03;5043207;28;20099;-34
2023/08/09 06:17:06;;;;;;;8.23;5.72;;;;;;;21.42;55.44;101585.38;5043697;28;20102;-34
2023/08/09 06:19:33;;;;;;;8.23;5.82;;;;;;;21.41;55.57;101591.78;5044321;28;20044;-33
2023/08/09 06:22:00;;;;;;;9.38;5.68;;;;;;;21.40;56.02;101595.47;5040915;28;20053;-33
2023/08/09 06:24:27;;;;;;;8.60;5.60;;;;;;;21.40;55.51;101590.09;5038817;28;20430;-33
2023/08/09 06:26:54;;;;;;;7.28;5.75;;;;;;;21.40;55.69;101595.47;5043510;28;20042;-33
2023/08/09 06:29:21;;;;;;;10.73;6.55;;;;;;;21.42;55.71;101596.16;5039483;28;20061;-34
2023/08/09 06:31:47;;;;;;;10.00;6.07;;;;;;;21.40;55.57;101600.88;5040065;28;20056;-33
2023/08/09 06:34:14;;;;;;;8.68;6.20;;;;;;;21.40;56.08;101600.88;5041603;28;20475;-33
2023/08/09 06:36:40;;;;;;;10.68;5.95;;;;;;;21.41;56.05;101599.03;5038026;28;20052;-34
2023/08/09 06:39:07;;;;;;;8.48;5.88;;;;;;;21.41;56.00;101607.09;5040768;28;20049;-34
2023/08/09 06:41:35;;;;;;;8.95;6.40;;;;;;;21.41;55.75;101602.56;5044847;28;20115;-34
2023/08/09 06:44:02;;;;;;;9.25;6.40;;;;;;;21.42;56.19;101609.63;5047081;28;20056;-34
2023/08/09 06:46:28;;;;;;;11.57;6.78;;;;;;;21.43;56.36;101615.91;5044557;28;20476;-34
2023/08/09 06:48:55;;;;;;;8.20;6.13;;;;;;;21.45;56.52;101613.88;5049174;28;20501;-34
2023/08/09 06:51:22;;;;;;;8.25;6.32;;;;;;;21.45;56.49;101608.47;5049546;28;20055;-33
2023/08/09 06:53:48;;;;;;;9.73;6.72;;;;;;;21.45;56.35;101605.78;5052829;28;20452;-34
2023/08/09 06:56:15;;;;;;;9.23;6.50;;;;;;;21.46;56.10;101618.25;5050874;28;20049;-34
2023/08/09 06:58:42;;;;;;;9.52;6.47;;;;;;;21.47;56.62;101619.09;5042273;28;20052;-34
2023/08/09 07:01:12;;;;;;;10.80;6.35;;;;;;;21.48;56.22;101620.81;5046906;28;20059;-34
2023/08/09 07:03:38;;;;;;;8.48;6.38;;;;;;;21.48;56.48;101624.38;5045276;28;20399;-33
2023/08/09 07:06:05;;;;;;;13.55;6.75;;;;;;;21.49;56.67;101623.34;5047541;28;20099;-34
2023/08/09 07:08:32;;;;;;;9.25;5.95;;;;;;;21.50;56.88;101622.34;5046387;28;20052;-34
2023/08/09 07:10:58;;;;;;;9.98;6.03;;;;;;;21.50;56.50;101619.63;5046653;28;20053;-33
2023/08/09 07:13:25;;;;;;;10.77;5.82;;;;;;;21.51;56.83;101621.34;5046221;28;20049;-34
2023/08/09 07:15:52;;;;;;;10.07;6.38;;;;;;;21.52;56.80;101622.19;5046117;28;20053;-34
2023/08/09 07:18:19;;;;;;;8.30;6.47;;;;;;;21.53;56.67;101624.72;5049343;28;20056;-33
2023/08/09 07:20:45;;;;;;;7.72;5.72;;;;;;;21.55;57.07;101625.44;5045721;28;20057;-34
2023/08/09 07:23:12;;;;;;;8.73;6.15;;;;;;;;;;5043105;28;20052;-34
2023/08/09 07:25:41;;;;;;;11.63;7.15;;;;;;;21.56;57.04;101626.28;5041874;28;20048;-33
2023/08/09 07:28:08;;;;;;;9.18;7.53;;;;;;;21.57;57.12;101626.09;5044214;28;20410;-34
2023/08/09 07:30:34;;;;;;;10.95;8.23;;;;;;;21.58;57.27;101629.66;5045246;28;20048;-34
2023/08/09 07:33:01;;;;;;;11.85;7.97;;;;;;;21.58;57.08;101629.66;5049682;28;20033;-34
2023/08/09 07:35:28;;;;;;;10.75;8.88;;;;;;;21.59;57.53;101631.34;5041794;28;20057;-33
2023/08/09 07:37:55;;;;;;;9.93;7.00;;;;;;;21.60;57.58;101636.59;5048625;28;20384;-34
2023/08/09 07:40:22;;;;;;;13.32;8.93;;;;;;;21.60;57.49;101633.88;5040277;28;20578;-33
2023/08/09 07:42:48;;;;;;;14.35;8.95;;;;;;;21.61;57.78;101626.63;5036947;28;20105;-34
2023/08/09 07:45:15;;;;;;;9.65;6.97;;;;;;;21.61;57.49;101627.47;5042947;28;20075;-34
2023/08/09 07:47:43;;;;;;;10.40;6.80;;;;;;;21.63;57.75;101633.59;5046374;28;20125;-34
2023/08/09 07:50:10;;;;;;;11.85;7.70;;;;;;;21.63;57.78;101636.28;5045534;28;20121;-34
2023/08/09 07:52:37;;;;;;;13.98;8.70;;;;;;;21.64;58.09;101640.66;5036139;28;20045;-33
2023/08/09 07:55:08;;;;;;;9.43;7.00;;;;;;;21.65;58.20;101636.94;5040874;28;20464;-34
2023/08/09 07:57:35;;;;;;;11.73;9.25;;;;;;;21.65;57.94;101642.34;5047042;28;20045;-33
2023/08/09 08:00:17;;;;;;;16.38;11.35;;;;;;;21.67;58.26;101653.84;5046633;28;20076;-34
2023/08/09 08:02:46;;;;;;;14.20;10.25;;;;;;;21.68;57.87;101658.22;5042373;28;20068;-34
2023/08/09 08:05:13;;;;;;;16.02;9.77;;;;;;;21.69;58.04;101662.63;5039864;28;20041;-33
2023/08/09 08:07:41;;;;;;;15.32;10.18;;;;;;;21.69;58.22;101659.91;5043368;28;20071;-33
2023/08/09 08:10:09;;;;;;;16.92;10.15;;;;;;;21.70;58.17;101671.53;5043704;28;20060;-34
2023/08/09 08:12:37;;;;;;;13.43;9.77;;;;;;;21.70;58.30;101666.16;5044509;28;20041;-34
2023/08/09 08:15:06;;;;;;;11.80;8.43;;;;;;;21.71;58.27;101675.97;5047280;28;20062;-34
2023/08/09 08:17:33;;;;;;;9.55;7.15;;;;;;;21.72;58.15;101668.72;5045578;28;20056;-34
2023/08/09 08:20:00;;;;;;;12.98;9.63;;;;;;;21.72;57.99;101674.09;5043502;28;20533;-34
2023/08/09 08:22:26;;;;;;;11.48;7.70;;;;;;;21.73;57.89;101670.41;5041556;28;20140;-33
2023/08/09 08:24:53;;;;;;;15.45;10.95;;;;;;;21.73;57.79;101678.50;5045118;28;20050;-34
2023/08/09 08:27:20;;;;;;;11.73;7.55;;;;;;;21.73;57.88;101668.53;5045005;28;20135;-34
2023/08/09 08:29:46;;;;;;;12.15;7.70;;;;;;;21.73;57.75;101673.94;5041983;28;20135;-34
2023/08/09 08:32:13;;;;;;;12.23;7.63;;;;;;;21.74;57.61;101683.72;5039866;28;20393;-33
2023/08/09 08:34:40;;;;;;;9.32;7.03;;;;;;;21.74;57.87;101680.19;5042605;28;20079;-34
2023/08/09 08:37:06;;;;;;;14.25;9.43;;;;;;;21.74;57.57;101672.94;5044986;28;20393;-34
2023/08/09 08:39:36;;;;;;;12.00;8.10;;;;;;;21.75;57.94;101681.88;5042908;28;20095;-34
2023/08/09 08:42:03;;;;;;;12.68;8.80;;;;;;;21.75;57.47;101682.75;5045019;28;20049;-34
2023/08/09 08:44:31;;;;;;;14.60;9.52;;;;;;;21.76;57.88;101687.13;5044181;28;20454;-34
2023/08/09 08:46:59;;;;;;;17.00;9.15;;;;;;;21.76;57.73;101697.06;5044296;28;20064;-34
2023/08/09 08:49:27;;;;;;;9.88;7.70;;;;;;;21.76;57.89;101692.53;5043461;28;20175;-34
2023/08/09 08:51:55;;;;;;;11.77;7.75;;;;;;;21.77;57.68;101699.59;5038359;28;20053;-34
2023/08/09 08:54:23;;;;;;;15.38;8.95;;;;;;;21.78;57.62;101695.06;5044542;28;20040;-34
2023/08/09 08:56:50;;;;;;;11.05;6.15;;;;;;;21.78;57.58;101692.34;5046982;28;20053;-34
2023/08/09 08:59:17;;;;;;;8.35;5.63;;;;;;;21.79;57.23;101703.00;5046898;28;20049;-34
2023/08/09 09:01:44;;;;;;;9.90;6.47;;;;;;;21.80;57.22;101710.09;5045419;28;20056;-34
2023/08/09 09:04:11;;;;;;;11.98;6.85;;;;;;;21.80;57.40;101695.75;5036595;28;20049;-34
2023/08/09 09:06:37;;;;;;;9.90;7.20;;;;;;;21.80;57.15;101696.59;5043870;28;20041;-33
2023/08/09 09:09:13;;;;;;;13.07;8.20;;;;;;;21.80;57.04;101693.06;5040781;28;20046;-33
2023/08/09 09:11:42;;;;;;;10.15;5.60;;;;;;;21.81;57.05;101695.59;5040401;28;20049;-34
2023/08/09 09:14:14;;;;;;;6.43;4.20;;;;;;;21.83;56.80;101700.81;5044604;28;20041;-33
2023/08/09 09:16:43;;;;;;;7.28;4.63;;;;;;;21.83;56.69;101704.38;5043680;28;20322;-35
2023/08/09 09:19:11;;;;;;;7.38;3.03;;;;;;;21.86;56.79;101706.75;5040482;28;20049;-33
2023/08/09 09:21:40;;;;;;;4.53;2.70;;;;;;;21.86;56.36;101708.59;5040311;28;20041;-33
2023/08/09 09:24:09;;;;;;;4.65;2.10;;;;;;;21.86;56.02;101701.34;5049816;28;20037;-33
2023/08/09 09:26:37;;;;;;;5.13;1.92;;;;;;;21.86;55.80;101700.50;5044647;28;20435;-33
2023/08/09 09:29:08;;;;;;;5.57;1.80;;;;;;;21.85;56.01;101715.84;5043526;28;20049;-33
2023/08/09 09:31:39;;;;;;;7.93;4.53;;;;;;;21.86;55.96;101697.81;5043095;28;20059;-33
2023/08/09 09:34:07;;;;;;;4.85;2.92;;;;;;;21.86;55.84;101700.50;5038889;28;20048;-33
2023/08/09 09:36:37;;;;;;;5.32;2.17;;;;;;;21.88;55.58;101693.13;5042329;28;20081;-34
2023/08/09 09:39:10;;;;;;;4.32;1.85;;;;;;;21.91;55.54;101695.50;5047056;28;20077;-33
2023/08/09 09:41:38;;;;;;;2.85;1.65;;;;;;;21.92;55.32;101694.47;5039908;28;20103;-33
2023/08/09 09:44:05;;;;;;;1.83;1.48;;;;;;;21.93;55.44;101699.72;5046037;28;20130;-33
2023/08/09 09:46:39;;;;;;;4.05;2.03;;;;;;;21.96;55.62;101697.72;5043639;28;20313;-33
2023/08/09 09:49:06;;;;;;;4.78;1.60;;;;;;;22.00;55.56;101696.41;5038740;28;20480;-33
2023/08/09 09:51:34;;;;;;;3.83;1.60;;;;;;;22.02;55.01;101692.50;5040071;28;20119;-34
2023/08/09 09:54:01;;;;;;;4.38;1.70;;;;;;;22.06;54.71;101698.44;5042016;28;20056;-34
2023/08/09 09:56:27;;;;;;;4.82;1.63;;;;;;;22.10;54.66;101699.81;5042188;28;20052;-34
2023/08/09 09:58:54;;;;;;;5.28;1.30;;;;;;;22.12;54.60;101704.06;5044177;28;20053;-34
2023/08/09 10:01:23;;;;;;;4.03;1.42;;;;;;;22.13;54.71;101708.47;5038809;28;20076;-34
2023/08/09 10:04:00;;;;;;;3.58;1.70;;;;;;;22.14;54.79;101706.63;5042779;28;20053;-34
2023/08/09 10:06:29;;;;;;;4.82;1.50;;;;;;;22.17;54.23;101715.25;5043831;28;20103;-34
2023/08/09 10:08:59;;;;;;;2.70;1.38;;;;;;;22.21;54.25;101715.78;5041942;28;20091;-34
2023/08/09 10:11:28;;;;;;;5.32;1.50;;;;;;;22.25;53.78;101721.72;5045187;28;20048;-34
2023/08/09 10:14:00;;;;;;;1.77;1.20;;;;;;;22.26;54.00;101729.66;5041833;28;20049;-34
2023/08/09 10:16:29;;;;;;;3.00;1.40;;;;;;;22.27;53.73;101722.38;5039804;28;20046;-34
2023/08/09 10:19:02;;;;;;;2.97;1.67;;;;;;;22.28;53.52;101724.09;5038337;28;20443;-34
2023/08/09 10:21:29;;;;;;;2.58;1.60;;;;;;;22.31;53.61;101726.47;5040675;28;20053;-34
2023/08/09 10:24:07;;;;;;;3.75;1.30;;;;;;;22.33;53.78;101721.75;5042807;28;20429;-34
2023/08/09 10:26:39;;;;;;;3.35;1.48;;;;;;;22.37;53.85;101720.44;5044178;28;20045;-34
2023/08/09 10:29:18;;;;;;;2.75;1.33;;;;;;;22.39;53.18;101730.06;5039593;28;20079;-34
2023/08/09 10:31:47;;;;;;;2.45;1.33;;;;;;;22.45;53.31;101730.44;5040158;28;20049;-34
2023/08/09 10:34:16;;;;;;;1.80;1.00;;;;;;;22.48;52.74;101728.25;5040867;28;20124;-34
2023/08/09 10:36:48;;;;;;;2.88;1.52;;;;;;;22.52;52.40;101739.59;5039613;28;20042;-34
2023/08/09 10:39:19;;;;;;;6.28;1.45;;;;;;;22.54;52.66;101727.59;5041385;28;20072;-34
2023/08/09 10:42:04;;;;;;;4.68;1.58;;;;;;;22.58;52.33;101730.81;5041272;28;20052;-34
2023/08/09 10:44:51;;;;;;;1.67;1.30;;;;;;;22.62;52.73;101738.44;5044496;28;20637;-34
2023/08/09 10:47:18;;;;;;;4.65;1.50;;;;;;;22.66;52.49;101736.25;5037988;28;20515;-34
2023/08/09 10:49:48;;;;;;;3.83;1.25;;;;;;;22.66;52.15;101739.81;5038204;28;20056;-34
2023/08/09 10:52:29;;;;;;;3.40;1.42;;;;;;;22.68;51.76;101747.78;5041622;28;20053;-34
2023/08/09 10:55:25;;;;;;;3.67;1.50;;;;;;;22.70;51.63;101750.28;5042283;28;20124;-34
2023/08/09 10:57:54;;;;;;;5.05;1.30;;;;;;;22.70;51.52;101753.84;5042179;28;20179;-34
2023/08/09 11:00:23;;;;;;;21.75;12.88;;;;;;;22.70;51.85;101769.22;5045296;28;20048;-34
2023/08/09 11:02:50;;;;;;;22.23;12.27;;;;;;;22.69;51.34;101760.25;5038626;28;20138;-34
2023/08/09 11:05:18;;;;;;;14.07;6.80;;;;;;;22.71;51.45;101770.91;5038838;28;20314;-34
2023/08/09 11:08:05;;;;;;;11.15;4.72;;;;;;;22.71;51.30;101768.19;5039266;28;20162;-34
2023/08/09 11:10:40;;;;;;;11.80;5.57;;;;;;;22.73;50.82;101777.00;5043666;28;20103;-34
2023/08/09 11:13:14;;;;;;;10.65;5.72;;;;;;;22.74;50.53;101765.19;5041235;28;20041;-34
2023/08/09 11:15:46;;;;;;;14.60;7.35;;;;;;;22.79;51.10;101771.78;5036929;28;20091;-34
2023/08/09 11:18:12;;;;;;;18.15;7.00;;;;;;;22.80;51.03;101770.78;5040252;28;20092;-34
2023/08/09 11:20:39;;;;;;;11.60;5.88;;;;;;;22.82;50.79;101771.47;5036908;28;20045;-34
2023/08/09 11:23:07;;;;;;;9.55;4.18;;;;;;;22.86;50.41;101783.66;5044047;28;20053;-34
2023/08/09 11:25:36;;;;;;;7.47;3.42;;;;;;;22.89;49.70;101777.06;5038653;28;20049;-35
2023/08/09 11:28:04;;;;;;;10.15;4.03;;;;;;;22.89;49.56;101777.91;5045841;28;20049;-34
2023/08/09 11:30:33;;;;;;;7.65;3.85;;;;;;;22.95;49.78;101778.28;5045327;28;20057;-34